Terminal Aerodrome Forecast
Issued by NWS

Home | Current Version | Previous Version | Graphics & Text | Print | Product List | Glossary Off
Versions: 1 2 3 4 5 6 7 8 9 10 11 12 13 14 15 16 17 18 19

000
FTUS43 KDDC 262320
TAFGCK
TAF
KGCK 262320Z 2700/2724 35012KT P6SM FEW200
     FM270200 07007KT P6SM FEW250
     FM271300 15012KT P6SM BKN130
     FM271600 16019KT P6SM BKN150
     FM272200 13017KT P6SM BKN070=

USA.gov is the U.S. government's official web portal to all federal, state and local government web resources and services.